sensor_id;sensor_type;location;lat;lon;timestamp;P1;durP1;ratioP1;P2;durP2;ratioP2
19778;SDS011;10049;59.306;18.090;2022-08-07T00:00:02;1.38;;;0.50;;
19778;SDS011;10049;59.306;18.090;2022-08-07T00:02:32;0.30;;;0.30;;
19778;SDS011;10049;59.306;18.090;2022-08-07T00:05:00;0.85;;;0.20;;
19778;SDS011;10049;59.306;18.090;2022-08-07T00:07:28;0.60;;;0.30;;
19778;SDS011;10049;59.306;18.090;2022-08-07T00:09:55;0.30;;;0.30;;
19778;SDS011;10049;59.306;18.090;2022-08-07T00:12:23;1.02;;;0.30;;
19778;SDS011;10049;59.306;18.090;2022-08-07T00:14:50;0.95;;;0.25;;
19778;SDS011;10049;59.306;18.090;2022-08-07T00:17:17;0.22;;;0.22;;
19778;SDS011;10049;59.306;18.090;2022-08-07T00:19:46;0.40;;;0.30;;
19778;SDS011;10049;59.306;18.090;2022-08-07T00:22:13;1.50;;;0.30;;
19778;SDS011;10049;59.306;18.090;2022-08-07T00:24:41;0.22;;;0.20;;
19778;SDS011;10049;59.306;18.090;2022-08-07T00:27:09;0.32;;;0.30;;
19778;SDS011;10049;59.306;18.090;2022-08-07T00:29:37;0.50;;;0.30;;
19778;SDS011;10049;59.306;18.090;2022-08-07T00:32:04;1.08;;;0.30;;
19778;SDS011;10049;59.306;18.090;2022-08-07T00:34:32;0.47;;;0.30;;
19778;SDS011;10049;59.306;18.090;2022-08-07T00:37:01;0.50;;;0.30;;
19778;SDS011;10049;59.306;18.090;2022-08-07T00:39:28;0.20;;;0.20;;
19778;SDS011;10049;59.306;18.090;2022-08-07T00:41:57;0.63;;;0.28;;
19778;SDS011;10049;59.306;18.090;2022-08-07T00:44:25;0.98;;;0.30;;
19778;SDS011;10049;59.306;18.090;2022-08-07T00:46:53;0.20;;;0.20;;
19778;SDS011;10049;59.306;18.090;2022-08-07T00:49:26;0.63;;;0.20;;
19778;SDS011;10049;59.306;18.090;2022-08-07T00:51:56;0.63;;;0.30;;
19778;SDS011;10049;59.306;18.090;2022-08-07T00:54:31;1.30;;;0.20;;
19778;SDS011;10049;59.306;18.090;2022-08-07T00:56:59;0.20;;;0.20;;
19778;SDS011;10049;59.306;18.090;2022-08-07T00:59:26;0.55;;;0.30;;
19778;SDS011;10049;59.306;18.090;2022-08-07T01:01:59;0.38;;;0.28;;
19778;SDS011;10049;59.306;18.090;2022-08-07T01:04:28;0.80;;;0.20;;
19778;SDS011;10049;59.306;18.090;2022-08-07T01:06:56;0.73;;;0.20;;
19778;SDS011;10049;59.306;18.090;2022-08-07T01:09:23;0.30;;;0.30;;
19778;SDS011;10049;59.306;18.090;2022-08-07T01:11:53;0.52;;;0.25;;
19778;SDS011;10049;59.306;18.090;2022-08-07T01:14:21;0.20;;;0.20;;
19778;SDS011;10049;59.306;18.090;2022-08-07T01:16:49;0.45;;;0.20;;
19778;SDS011;10049;59.306;18.090;2022-08-07T01:19:18;1.05;;;0.40;;
19778;SDS011;10049;59.306;18.090;2022-08-07T01:21:48;1.73;;;0.40;;
19778;SDS011;10049;59.306;18.090;2022-08-07T01:24:16;0.75;;;0.20;;
19778;SDS011;10049;59.306;18.090;2022-08-07T01:26:44;0.63;;;0.30;;
19778;SDS011;10049;59.306;18.090;2022-08-07T01:29:29;0.80;;;0.20;;
19778;SDS011;10049;59.306;18.090;2022-08-07T01:31:58;0.55;;;0.30;;
19778;SDS011;10049;59.306;18.090;2022-08-07T01:34:28;0.20;;;0.20;;
19778;SDS011;10049;59.306;18.090;2022-08-07T01:36:56;1.45;;;0.30;;
19778;SDS011;10049;59.306;18.090;2022-08-07T01:39:24;0.55;;;0.20;;
19778;SDS011;10049;59.306;18.090;2022-08-07T01:41:52;0.22;;;0.20;;
19778;SDS011;10049;59.306;18.090;2022-08-07T01:44:22;0.90;;;0.38;;
19778;SDS011;10049;59.306;18.090;2022-08-07T01:46:51;1.08;;;0.40;;
19778;SDS011;10049;59.306;18.090;2022-08-07T01:49:19;0.30;;;0.30;;
19778;SDS011;10049;59.306;18.090;2022-08-07T01:51:46;0.30;;;0.30;;
19778;SDS011;10049;59.306;18.090;2022-08-07T01:54:14;1.17;;;0.30;;
19778;SDS011;10049;59.306;18.090;2022-08-07T01:56:47;0.55;;;0.28;;
19778;SDS011;10049;59.306;18.090;2022-08-07T01:59:17;2.03;;;0.30;;
19778;SDS011;10049;59.306;18.090;2022-08-07T02:01:46;0.40;;;0.30;;
19778;SDS011;10049;59.306;18.090;2022-08-07T02:04:17;1.75;;;0.20;;
19778;SDS011;10049;59.306;18.090;2022-08-07T02:06:51;0.30;;;0.30;;
19778;SDS011;10049;59.306;18.090;2022-08-07T02:09:20;0.30;;;0.30;;
19778;SDS011;10049;59.306;18.090;2022-08-07T02:11:48;1.17;;;0.30;;
19778;SDS011;10049;59.306;18.090;2022-08-07T02:14:18;0.65;;;0.20;;
19778;SDS011;10049;59.306;18.090;2022-08-07T02:16:46;0.65;;;0.20;;
19778;SDS011;10049;59.306;18.090;2022-08-07T02:19:16;0.40;;;0.30;;
19778;SDS011;10049;59.306;18.090;2022-08-07T02:21:45;0.30;;;0.30;;
19778;SDS011;10049;59.306;18.090;2022-08-07T02:24:13;0.65;;;0.30;;
19778;SDS011;10049;59.306;18.090;2022-08-07T02:26:41;0.88;;;0.30;;
19778;SDS011;10049;59.306;18.090;2022-08-07T02:29:10;1.08;;;0.40;;
19778;SDS011;10049;59.306;18.090;2022-08-07T02:31:38;0.20;;;0.20;;
19778;SDS011;10049;59.306;18.090;2022-08-07T02:34:05;2.47;;;0.32;;
19778;SDS011;10049;59.306;18.090;2022-08-07T02:36:35;0.20;;;0.20;;
19778;SDS011;10049;59.306;18.090;2022-08-07T02:39:03;1.27;;;0.30;;
19778;SDS011;10049;59.306;18.090;2022-08-07T02:41:31;0.95;;;0.30;;
19778;SDS011;10049;59.306;18.090;2022-08-07T02:43:59;2.30;;;0.30;;
19778;SDS011;10049;59.306;18.090;2022-08-07T02:46:30;0.85;;;0.28;;
19778;SDS011;10049;59.306;18.090;2022-08-07T02:48:57;0.95;;;0.40;;
19778;SDS011;10049;59.306;18.090;2022-08-07T02:51:25;0.25;;;0.20;;
19778;SDS011;10049;59.306;18.090;2022-08-07T02:53:58;0.65;;;0.28;;
19778;SDS011;10049;59.306;18.090;2022-08-07T02:56:31;0.38;;;0.30;;
19778;SDS011;10049;59.306;18.090;2022-08-07T02:59:01;1.08;;;0.22;;
19778;SDS011;10049;59.306;18.090;2022-08-07T03:01:29;3.55;;;0.40;;
19778;SDS011;10049;59.306;18.090;2022-08-07T03:03:57;0.30;;;0.30;;
19778;SDS011;10049;59.306;18.090;2022-08-07T03:06:26;4.57;;;0.40;;
19778;SDS011;10049;59.306;18.090;2022-08-07T03:08:54;0.85;;;0.30;;
19778;SDS011;10049;59.306;18.090;2022-08-07T03:11:25;1.55;;;0.40;;
19778;SDS011;10049;59.306;18.090;2022-08-07T03:13:55;1.58;;;0.30;;
19778;SDS011;10049;59.306;18.090;2022-08-07T03:16:24;0.82;;;0.40;;
19778;SDS011;10049;59.306;18.090;2022-08-07T03:18:51;0.30;;;0.30;;
19778;SDS011;10049;59.306;18.090;2022-08-07T03:21:19;0.30;;;0.20;;
19778;SDS011;10049;59.306;18.090;2022-08-07T03:23:46;0.52;;;0.38;;
19778;SDS011;10049;59.306;18.090;2022-08-07T03:26:15;0.20;;;0.20;;
19778;SDS011;10049;59.306;18.090;2022-08-07T03:28:46;0.32;;;0.30;;
19778;SDS011;10049;59.306;18.090;2022-08-07T03:31:16;0.40;;;0.40;;
19778;SDS011;10049;59.306;18.090;2022-08-07T03:33:45;1.20;;;0.35;;
19778;SDS011;10049;59.306;18.090;2022-08-07T03:36:13;1.15;;;0.32;;
19778;SDS011;10049;59.306;18.090;2022-08-07T03:38:41;1.05;;;0.30;;
19778;SDS011;10049;59.306;18.090;2022-08-07T03:41:09;1.15;;;0.30;;
19778;SDS011;10049;59.306;18.090;2022-08-07T03:43:41;3.28;;;0.30;;
19778;SDS011;10049;59.306;18.090;2022-08-07T03:46:10;1.95;;;0.22;;
19778;SDS011;10049;59.306;18.090;2022-08-07T03:48:37;1.45;;;0.30;;
19778;SDS011;10049;59.306;18.090;2022-08-07T03:51:05;1.58;;;0.32;;
19778;SDS011;10049;59.306;18.090;2022-08-07T03:53:33;0.60;;;0.30;;
19778;SDS011;10049;59.306;18.090;2022-08-07T03:56:01;0.30;;;0.25;;
19778;SDS011;10049;59.306;18.090;2022-08-07T03:58:29;0.40;;;0.38;;
19778;SDS011;10049;59.306;18.090;2022-08-07T04:00:57;0.85;;;0.43;;
19778;SDS011;10049;59.306;18.090;2022-08-07T04:03:30;0.77;;;0.40;;
19778;SDS011;10049;59.306;18.090;2022-08-07T04:05:59;1.55;;;0.30;;
19778;SDS011;10049;59.306;18.090;2022-08-07T04:08:26;1.60;;;0.40;;
19778;SDS011;10049;59.306;18.090;2022-08-07T04:10:54;1.15;;;0.30;;
19778;SDS011;10049;59.306;18.090;2022-08-07T04:13:23;1.73;;;0.50;;
19778;SDS011;10049;59.306;18.090;2022-08-07T04:15:51;0.82;;;0.45;;
19778;SDS011;10049;59.306;18.090;2022-08-07T04:18:18;0.63;;;0.43;;
19778;SDS011;10049;59.306;18.090;2022-08-07T04:20:48;2.78;;;0.50;;
19778;SDS011;10049;59.306;18.090;2022-08-07T04:23:15;0.90;;;0.47;;
19778;SDS011;10049;59.306;18.090;2022-08-07T04:25:43;2.95;;;0.52;;
19778;SDS011;10049;59.306;18.090;2022-08-07T04:28:11;2.22;;;0.73;;
19778;SDS011;10049;59.306;18.090;2022-08-07T04:30:38;2.80;;;0.50;;
19778;SDS011;10049;59.306;18.090;2022-08-07T04:33:09;1.65;;;0.85;;
19778;SDS011;10049;59.306;18.090;2022-08-07T04:35:37;1.25;;;0.40;;
19778;SDS011;10049;59.306;18.090;2022-08-07T04:38:08;1.35;;;0.45;;
19778;SDS011;10049;59.306;18.090;2022-08-07T04:40:38;2.30;;;0.57;;
19778;SDS011;10049;59.306;18.090;2022-08-07T04:43:07;2.53;;;0.63;;
19778;SDS011;10049;59.306;18.090;2022-08-07T04:45:37;0.30;;;0.30;;
19778;SDS011;10049;59.306;18.090;2022-08-07T04:48:06;2.28;;;0.60;;
19778;SDS011;10049;59.306;18.090;2022-08-07T04:50:36;1.17;;;0.50;;
19778;SDS011;10049;59.306;18.090;2022-08-07T04:53:09;0.95;;;0.57;;
19778;SDS011;10049;59.306;18.090;2022-08-07T04:55:41;1.15;;;0.40;;
19778;SDS011;10049;59.306;18.090;2022-08-07T04:58:13;0.77;;;0.40;;
19778;SDS011;10049;59.306;18.090;2022-08-07T05:00:46;1.67;;;0.40;;
19778;SDS011;10049;59.306;18.090;2022-08-07T05:03:15;1.10;;;0.30;;
19778;SDS011;10049;59.306;18.090;2022-08-07T05:05:48;1.75;;;0.50;;
19778;SDS011;10049;59.306;18.090;2022-08-07T05:08:21;1.70;;;0.50;;
19778;SDS011;10049;59.306;18.090;2022-08-07T05:10:51;0.47;;;0.30;;
19778;SDS011;10049;59.306;18.090;2022-08-07T05:13:23;0.93;;;0.40;;
19778;SDS011;10049;59.306;18.090;2022-08-07T05:15:53;1.17;;;0.50;;
19778;SDS011;10049;59.306;18.090;2022-08-07T05:18:22;1.75;;;0.43;;
19778;SDS011;10049;59.306;18.090;2022-08-07T05:20:52;2.17;;;0.60;;
19778;SDS011;10049;59.306;18.090;2022-08-07T05:23:24;2.28;;;0.65;;
19778;SDS011;10049;59.306;18.090;2022-08-07T05:25:53;1.83;;;0.45;;
19778;SDS011;10049;59.306;18.090;2022-08-07T05:28:21;0.57;;;0.40;;
19778;SDS011;10049;59.306;18.090;2022-08-07T05:30:50;2.20;;;0.80;;
19778;SDS011;10049;59.306;18.090;2022-08-07T05:33:18;3.75;;;0.73;;
19778;SDS011;10049;59.306;18.090;2022-08-07T05:35:46;2.55;;;0.55;;
19778;SDS011;10049;59.306;18.090;2022-08-07T05:38:14;1.58;;;0.70;;
19778;SDS011;10049;59.306;18.090;2022-08-07T05:40:44;2.60;;;0.50;;
19778;SDS011;10049;59.306;18.090;2022-08-07T05:43:12;2.38;;;0.50;;
19778;SDS011;10049;59.306;18.090;2022-08-07T05:45:39;1.23;;;0.47;;
19778;SDS011;10049;59.306;18.090;2022-08-07T05:48:07;0.68;;;0.40;;
19778;SDS011;10049;59.306;18.090;2022-08-07T05:50:34;1.52;;;0.50;;
19778;SDS011;10049;59.306;18.090;2022-08-07T05:59:04;1.02;;;0.57;;
19778;SDS011;10049;59.306;18.090;2022-08-07T06:01:34;1.42;;;0.50;;
19778;SDS011;10049;59.306;18.090;2022-08-07T06:04:03;3.05;;;0.50;;
19778;SDS011;10049;59.306;18.090;2022-08-07T06:06:31;1.50;;;0.50;;
19778;SDS011;10049;59.306;18.090;2022-08-07T06:08:59;3.60;;;0.50;;
19778;SDS011;10049;59.306;18.090;2022-08-07T06:11:27;1.75;;;0.60;;
19778;SDS011;10049;59.306;18.090;2022-08-07T06:13:55;2.20;;;0.70;;
19778;SDS011;10049;59.306;18.090;2022-08-07T06:16:26;1.45;;;0.50;;
19778;SDS011;10049;59.306;18.090;2022-08-07T06:18:53;2.53;;;0.60;;
19778;SDS011;10049;59.306;18.090;2022-08-07T06:21:22;2.00;;;0.70;;
19778;SDS011;10049;59.306;18.090;2022-08-07T06:23:50;1.90;;;0.50;;
19778;SDS011;10049;59.306;18.090;2022-08-07T06:26:17;2.70;;;0.70;;
19778;SDS011;10049;59.306;18.090;2022-08-07T06:28:48;4.28;;;0.90;;
19778;SDS011;10049;59.306;18.090;2022-08-07T06:31:15;2.67;;;0.68;;
19778;SDS011;10049;59.306;18.090;2022-08-07T06:33:44;0.93;;;0.50;;
19778;SDS011;10049;59.306;18.090;2022-08-07T06:36:11;1.75;;;0.63;;
19778;SDS011;10049;59.306;18.090;2022-08-07T06:38:39;1.17;;;0.40;;
19778;SDS011;10049;59.306;18.090;2022-08-07T06:41:08;2.58;;;0.73;;
19778;SDS011;10049;59.306;18.090;2022-08-07T06:43:36;4.15;;;0.68;;
19778;SDS011;10049;59.306;18.090;2022-08-07T06:46:03;1.35;;;0.57;;
19778;SDS011;10049;59.306;18.090;2022-08-07T06:48:31;2.42;;;0.57;;
19778;SDS011;10049;59.306;18.090;2022-08-07T06:51:06;2.50;;;0.50;;
19778;SDS011;10049;59.306;18.090;2022-08-07T06:53:34;2.10;;;0.75;;
19778;SDS011;10049;59.306;18.090;2022-08-07T06:56:04;1.02;;;0.52;;
19778;SDS011;10049;59.306;18.090;2022-08-07T06:58:32;1.63;;;0.50;;
19778;SDS011;10049;59.306;18.090;2022-08-07T07:01:01;2.53;;;0.65;;
19778;SDS011;10049;59.306;18.090;2022-08-07T07:03:29;1.77;;;0.73;;
19778;SDS011;10049;59.306;18.090;2022-08-07T07:05:57;1.48;;;0.50;;
19778;SDS011;10049;59.306;18.090;2022-08-07T07:08:26;1.05;;;0.52;;
19778;SDS011;10049;59.306;18.090;2022-08-07T07:10:53;1.88;;;0.50;;
19778;SDS011;10049;59.306;18.090;2022-08-07T07:13:22;1.15;;;0.57;;
19778;SDS011;10049;59.306;18.090;2022-08-07T07:15:56;1.73;;;0.80;;
19778;SDS011;10049;59.306;18.090;2022-08-07T07:18:27;1.45;;;0.50;;
19778;SDS011;10049;59.306;18.090;2022-08-07T07:20:56;1.42;;;0.68;;
19778;SDS011;10049;59.306;18.090;2022-08-07T07:23:27;3.80;;;0.82;;
19778;SDS011;10049;59.306;18.090;2022-08-07T07:25:55;2.17;;;0.60;;
19778;SDS011;10049;59.306;18.090;2022-08-07T07:28:23;4.43;;;0.77;;
19778;SDS011;10049;59.306;18.090;2022-08-07T07:30:52;4.40;;;0.50;;
19778;SDS011;10049;59.306;18.090;2022-08-07T07:33:23;1.23;;;0.60;;
19778;SDS011;10049;59.306;18.090;2022-08-07T07:35:52;4.68;;;1.00;;
19778;SDS011;10049;59.306;18.090;2022-08-07T07:38:21;1.15;;;0.60;;
19778;SDS011;10049;59.306;18.090;2022-08-07T07:40:51;1.40;;;0.57;;
19778;SDS011;10049;59.306;18.090;2022-08-07T07:43:20;2.53;;;0.60;;
19778;SDS011;10049;59.306;18.090;2022-08-07T07:45:48;1.95;;;0.70;;
19778;SDS011;10049;59.306;18.090;2022-08-07T07:48:18;2.67;;;0.50;;
19778;SDS011;10049;59.306;18.090;2022-08-07T07:50:49;1.63;;;0.50;;
19778;SDS011;10049;59.306;18.090;2022-08-07T07:53:18;1.55;;;0.50;;
19778;SDS011;10049;59.306;18.090;2022-08-07T07:55:46;0.75;;;0.40;;
19778;SDS011;10049;59.306;18.090;2022-08-07T07:58:15;1.23;;;0.40;;
19778;SDS011;10049;59.306;18.090;2022-08-07T08:00:44;0.77;;;0.40;;
19778;SDS011;10049;59.306;18.090;2022-08-07T08:03:13;1.60;;;0.60;;
19778;SDS011;10049;59.306;18.090;2022-08-07T08:05:41;1.27;;;0.50;;
19778;SDS011;10049;59.306;18.090;2022-08-07T08:08:09;1.67;;;0.52;;
19778;SDS011;10049;59.306;18.090;2022-08-07T08:10:38;0.90;;;0.40;;
19778;SDS011;10049;59.306;18.090;2022-08-07T08:13:06;2.83;;;0.70;;
19778;SDS011;10049;59.306;18.090;2022-08-07T08:15:37;1.60;;;0.40;;
19778;SDS011;10049;59.306;18.090;2022-08-07T08:18:06;1.63;;;0.50;;
19778;SDS011;10049;59.306;18.090;2022-08-07T08:20:40;2.63;;;0.60;;
19778;SDS011;10049;59.306;18.090;2022-08-07T08:23:09;0.95;;;0.47;;
19778;SDS011;10049;59.306;18.090;2022-08-07T08:25:54;0.95;;;0.60;;
19778;SDS011;10049;59.306;18.090;2022-08-07T08:28:48;0.70;;;0.50;;
19778;SDS011;10049;59.306;18.090;2022-08-07T08:31:21;1.30;;;0.40;;
19778;SDS011;10049;59.306;18.090;2022-08-07T08:33:50;1.70;;;0.60;;
19778;SDS011;10049;59.306;18.090;2022-08-07T08:36:19;3.17;;;0.40;;
19778;SDS011;10049;59.306;18.090;2022-08-07T08:38:47;0.73;;;0.40;;
19778;SDS011;10049;59.306;18.090;2022-08-07T08:41:16;0.50;;;0.38;;
19778;SDS011;10049;59.306;18.090;2022-08-07T08:43:46;1.27;;;0.40;;
19778;SDS011;10049;59.306;18.090;2022-08-07T08:46:17;0.85;;;0.40;;
19778;SDS011;10049;59.306;18.090;2022-08-07T08:48:50;0.30;;;0.20;;
19778;SDS011;10049;59.306;18.090;2022-08-07T08:51:23;1.80;;;0.40;;
19778;SDS011;10049;59.306;18.090;2022-08-07T08:53:53;2.65;;;0.50;;
19778;SDS011;10049;59.306;18.090;2022-08-07T08:56:23;1.23;;;0.40;;
19778;SDS011;10049;59.306;18.090;2022-08-07T08:58:53;0.50;;;0.40;;
19778;SDS011;10049;59.306;18.090;2022-08-07T09:01:25;1.27;;;0.30;;
19778;SDS011;10049;59.306;18.090;2022-08-07T09:03:57;3.38;;;0.40;;
19778;SDS011;10049;59.306;18.090;2022-08-07T09:06:28;2.08;;;0.40;;
19778;SDS011;10049;59.306;18.090;2022-08-07T09:08:59;0.80;;;0.40;;
19778;SDS011;10049;59.306;18.090;2022-08-07T09:11:33;1.67;;;0.40;;
19778;SDS011;10049;59.306;18.090;2022-08-07T09:14:03;0.50;;;0.30;;
19778;SDS011;10049;59.306;18.090;2022-08-07T09:16:35;1.30;;;0.40;;
19778;SDS011;10049;59.306;18.090;2022-08-07T09:19:13;0.73;;;0.30;;
19778;SDS011;10049;59.306;18.090;2022-08-07T09:21:48;1.00;;;0.47;;
19778;SDS011;10049;59.306;18.090;2022-08-07T09:24:25;0.68;;;0.40;;
19778;SDS011;10049;59.306;18.090;2022-08-07T09:26:56;0.73;;;0.40;;
19778;SDS011;10049;59.306;18.090;2022-08-07T09:29:28;2.53;;;0.40;;
19778;SDS011;10049;59.306;18.090;2022-08-07T09:32:01;1.10;;;0.40;;
19778;SDS011;10049;59.306;18.090;2022-08-07T09:34:35;1.40;;;0.47;;
19778;SDS011;10049;59.306;18.090;2022-08-07T09:37:10;1.45;;;0.55;;
19778;SDS011;10049;59.306;18.090;2022-08-07T09:39:44;1.67;;;0.60;;
19778;SDS011;10049;59.306;18.090;2022-08-07T09:42:15;1.85;;;0.50;;
19778;SDS011;10049;59.306;18.090;2022-08-07T09:44:46;1.33;;;0.60;;
19778;SDS011;10049;59.306;18.090;2022-08-07T09:47:18;1.60;;;0.57;;
19778;SDS011;10049;59.306;18.090;2022-08-07T09:49:54;0.95;;;0.50;;
19778;SDS011;10049;59.306;18.090;2022-08-07T09:52:28;1.25;;;0.60;;
19778;SDS011;10049;59.306;18.090;2022-08-07T09:54:56;0.80;;;0.50;;
19778;SDS011;10049;59.306;18.090;2022-08-07T10:00:12;1.83;;;0.50;;
19778;SDS011;10049;59.306;18.090;2022-08-07T10:02:51;1.00;;;0.50;;
19778;SDS011;10049;59.306;18.090;2022-08-07T10:05:32;2.25;;;0.60;;
19778;SDS011;10049;59.306;18.090;2022-08-07T10:08:03;3.05;;;0.82;;
19778;SDS011;10049;59.306;18.090;2022-08-07T10:10:39;2.35;;;0.60;;
19778;SDS011;10049;59.306;18.090;2022-08-07T10:16:01;1.38;;;0.70;;
19778;SDS011;10049;59.306;18.090;2022-08-07T10:18:37;1.58;;;0.50;;
19778;SDS011;10049;59.306;18.090;2022-08-07T10:23:58;2.38;;;0.60;;
19778;SDS011;10049;59.306;18.090;2022-08-07T10:26:35;2.95;;;0.70;;
19778;SDS011;10049;59.306;18.090;2022-08-07T10:29:23;3.33;;;0.60;;
19778;SDS011;10049;59.306;18.090;2022-08-07T10:31:58;1.63;;;0.52;;
19778;SDS011;10049;59.306;18.090;2022-08-07T10:34:34;1.15;;;0.57;;
19778;SDS011;10049;59.306;18.090;2022-08-07T10:37:09;1.63;;;0.60;;
19778;SDS011;10049;59.306;18.090;2022-08-07T10:39:55;2.83;;;0.63;;
19778;SDS011;10049;59.306;18.090;2022-08-07T10:42:28;0.57;;;0.40;;
19778;SDS011;10049;59.306;18.090;2022-08-07T10:45:00;1.65;;;0.60;;
19778;SDS011;10049;59.306;18.090;2022-08-07T10:47:31;1.90;;;0.60;;
19778;SDS011;10049;59.306;18.090;2022-08-07T10:50:05;1.90;;;0.82;;
19778;SDS011;10049;59.306;18.090;2022-08-07T10:52:35;1.60;;;0.50;;
19778;SDS011;10049;59.306;18.090;2022-08-07T10:55:09;2.05;;;0.70;;
19778;SDS011;10049;59.306;18.090;2022-08-07T10:57:42;0.98;;;0.60;;
19778;SDS011;10049;59.306;18.090;2022-08-07T11:00:12;1.27;;;0.50;;
19778;SDS011;10049;59.306;18.090;2022-08-07T11:02:45;1.45;;;0.40;;
19778;SDS011;10049;59.306;18.090;2022-08-07T11:05:21;1.60;;;0.70;;
19778;SDS011;10049;59.306;18.090;2022-08-07T11:07:55;2.60;;;0.70;;
19778;SDS011;10049;59.306;18.090;2022-08-07T11:10:31;1.63;;;0.65;;
19778;SDS011;10049;59.306;18.090;2022-08-07T11:13:01;2.17;;;0.82;;
19778;SDS011;10049;59.306;18.090;2022-08-07T11:15:31;1.98;;;0.63;;
19778;SDS011;10049;59.306;18.090;2022-08-07T11:18:02;2.65;;;0.68;;
19778;SDS011;10049;59.306;18.090;2022-08-07T11:20:35;2.63;;;0.68;;
19778;SDS011;10049;59.306;18.090;2022-08-07T11:23:06;0.70;;;0.50;;
19778;SDS011;10049;59.306;18.090;2022-08-07T11:25:37;1.98;;;0.70;;
19778;SDS011;10049;59.306;18.090;2022-08-07T11:28:07;1.48;;;0.80;;
19778;SDS011;10049;59.306;18.090;2022-08-07T11:30:40;2.53;;;0.60;;
19778;SDS011;10049;59.306;18.090;2022-08-07T11:33:10;1.50;;;0.70;;
19778;SDS011;10049;59.306;18.090;2022-08-07T11:35:45;1.40;;;0.65;;
19778;SDS011;10049;59.306;18.090;2022-08-07T11:38:36;2.13;;;0.50;;
19778;SDS011;10049;59.306;18.090;2022-08-07T11:41:18;1.25;;;0.55;;
19778;SDS011;10049;59.306;18.090;2022-08-07T11:43:56;0.70;;;0.47;;
19778;SDS011;10049;59.306;18.090;2022-08-07T12:05:15;0.80;;;0.50;;
19778;SDS011;10049;59.306;18.090;2022-08-07T12:23:37;0.63;;;0.40;;
19778;SDS011;10049;59.306;18.090;2022-08-07T12:26:10;1.70;;;0.52;;
19778;SDS011;10049;59.306;18.090;2022-08-07T12:28:41;1.33;;;0.50;;
19778;SDS011;10049;59.306;18.090;2022-08-07T12:31:13;1.85;;;0.50;;
19778;SDS011;10049;59.306;18.090;2022-08-07T12:33:43;1.13;;;0.50;;
19778;SDS011;10049;59.306;18.090;2022-08-07T12:36:12;0.52;;;0.40;;
19778;SDS011;10049;59.306;18.090;2022-08-07T12:38:43;1.40;;;0.40;;
19778;SDS011;10049;59.306;18.090;2022-08-07T12:41:12;0.75;;;0.50;;
19778;SDS011;10049;59.306;18.090;2022-08-07T12:43:41;0.52;;;0.40;;
19778;SDS011;10049;59.306;18.090;2022-08-07T12:46:14;1.20;;;0.40;;
19778;SDS011;10049;59.306;18.090;2022-08-07T12:48:52;1.25;;;0.40;;
19778;SDS011;10049;59.306;18.090;2022-08-07T12:51:23;0.57;;;0.30;;
19778;SDS011;10049;59.306;18.090;2022-08-07T12:53:55;0.65;;;0.40;;
19778;SDS011;10049;59.306;18.090;2022-08-07T12:56:28;1.48;;;0.40;;
19778;SDS011;10049;59.306;18.090;2022-08-07T12:58:57;0.98;;;0.47;;
19778;SDS011;10049;59.306;18.090;2022-08-07T13:01:34;1.33;;;0.50;;
19778;SDS011;10049;59.306;18.090;2022-08-07T13:04:27;1.60;;;0.50;;
19778;SDS011;10049;59.306;18.090;2022-08-07T13:13:00;0.50;;;0.40;;
19778;SDS011;10049;59.306;18.090;2022-08-07T13:15:36;1.15;;;0.50;;
19778;SDS011;10049;59.306;18.090;2022-08-07T13:18:15;0.77;;;0.43;;
19778;SDS011;10049;59.306;18.090;2022-08-07T13:20:44;1.27;;;0.40;;
19778;SDS011;10049;59.306;18.090;2022-08-07T13:23:16;0.55;;;0.40;;
19778;SDS011;10049;59.306;18.090;2022-08-07T13:25:45;0.90;;;0.40;;
19778;SDS011;10049;59.306;18.090;2022-08-07T13:28:20;0.50;;;0.40;;
19778;SDS011;10049;59.306;18.090;2022-08-07T13:30:51;9.25;;;0.57;;
19778;SDS011;10049;59.306;18.090;2022-08-07T13:33:22;3.72;;;0.40;;
19778;SDS011;10049;59.306;18.090;2022-08-07T13:35:53;1.08;;;0.40;;
19778;SDS011;10049;59.306;18.090;2022-08-07T13:38:26;0.30;;;0.30;;
19778;SDS011;10049;59.306;18.090;2022-08-07T13:40:56;0.60;;;0.30;;
19778;SDS011;10049;59.306;18.090;2022-08-07T13:43:28;1.50;;;0.38;;
19778;SDS011;10049;59.306;18.090;2022-08-07T13:45:58;0.35;;;0.30;;
19778;SDS011;10049;59.306;18.090;2022-08-07T13:48:27;0.93;;;0.40;;
19778;SDS011;10049;59.306;18.090;2022-08-07T13:50:55;1.02;;;0.57;;
19778;SDS011;10049;59.306;18.090;2022-08-07T13:53:28;2.28;;;0.43;;
19778;SDS011;10049;59.306;18.090;2022-08-07T13:55:57;0.30;;;0.30;;
19778;SDS011;10049;59.306;18.090;2022-08-07T13:58:24;0.73;;;0.50;;
19778;SDS011;10049;59.306;18.090;2022-08-07T14:01:12;0.47;;;0.30;;
19778;SDS011;10049;59.306;18.090;2022-08-07T14:03:41;0.80;;;0.40;;
19778;SDS011;10049;59.306;18.090;2022-08-07T14:06:09;0.95;;;0.40;;
19778;SDS011;10049;59.306;18.090;2022-08-07T14:08:39;0.70;;;0.40;;
19778;SDS011;10049;59.306;18.090;2022-08-07T14:11:10;1.17;;;0.68;;
19778;SDS011;10049;59.306;18.090;2022-08-07T14:13:39;1.15;;;0.30;;
19778;SDS011;10049;59.306;18.090;2022-08-07T14:16:08;0.95;;;0.40;;
19778;SDS011;10049;59.306;18.090;2022-08-07T14:21:25;0.70;;;0.40;;
19778;SDS011;10049;59.306;18.090;2022-08-07T14:23:56;2.42;;;0.45;;
19778;SDS011;10049;59.306;18.090;2022-08-07T14:26:39;1.45;;;0.45;;
19778;SDS011;10049;59.306;18.090;2022-08-07T14:29:09;1.17;;;0.50;;
19778;SDS011;10049;59.306;18.090;2022-08-07T14:31:38;0.70;;;0.45;;
19778;SDS011;10049;59.306;18.090;2022-08-07T14:34:06;2.17;;;0.47;;
19778;SDS011;10049;59.306;18.090;2022-08-07T14:36:36;1.95;;;0.63;;
19778;SDS011;10049;59.306;18.090;2022-08-07T14:39:04;0.70;;;0.40;;
19778;SDS011;10049;59.306;18.090;2022-08-07T14:41:33;0.60;;;0.50;;
19778;SDS011;10049;59.306;18.090;2022-08-07T14:44:02;0.55;;;0.47;;
19778;SDS011;10049;59.306;18.090;2022-08-07T14:46:41;0.57;;;0.40;;
19778;SDS011;10049;59.306;18.090;2022-08-07T14:49:12;0.57;;;0.30;;
19778;SDS011;10049;59.306;18.090;2022-08-07T14:51:42;1.52;;;0.52;;
19778;SDS011;10049;59.306;18.090;2022-08-07T14:54:13;1.23;;;0.50;;
19778;SDS011;10049;59.306;18.090;2022-08-07T14:56:42;0.45;;;0.35;;
19778;SDS011;10049;59.306;18.090;2022-08-07T14:59:13;1.38;;;0.40;;
19778;SDS011;10049;59.306;18.090;2022-08-07T15:01:43;0.77;;;0.28;;
19778;SDS011;10049;59.306;18.090;2022-08-07T15:04:10;2.70;;;0.40;;
19778;SDS011;10049;59.306;18.090;2022-08-07T15:06:39;2.85;;;0.50;;
19778;SDS011;10049;59.306;18.090;2022-08-07T15:09:11;1.48;;;0.47;;
19778;SDS011;10049;59.306;18.090;2022-08-07T15:11:42;0.98;;;0.55;;
19778;SDS011;10049;59.306;18.090;2022-08-07T15:14:15;1.27;;;0.40;;
19778;SDS011;10049;59.306;18.090;2022-08-07T15:16:47;0.50;;;0.50;;
19778;SDS011;10049;59.306;18.090;2022-08-07T15:19:16;0.93;;;0.35;;
19778;SDS011;10049;59.306;18.090;2022-08-07T15:21:46;1.65;;;0.50;;
19778;SDS011;10049;59.306;18.090;2022-08-07T15:24:21;0.50;;;0.20;;
19778;SDS011;10049;59.306;18.090;2022-08-07T15:26:54;1.08;;;0.40;;
19778;SDS011;10049;59.306;18.090;2022-08-07T15:29:23;1.58;;;0.35;;
19778;SDS011;10049;59.306;18.090;2022-08-07T15:31:59;0.47;;;0.30;;
19778;SDS011;10049;59.306;18.090;2022-08-07T15:34:28;1.65;;;0.50;;
19778;SDS011;10049;59.306;18.090;2022-08-07T15:36:59;0.68;;;0.30;;
19778;SDS011;10049;59.306;18.090;2022-08-07T15:39:29;0.98;;;0.40;;
19778;SDS011;10049;59.306;18.090;2022-08-07T15:41:57;1.67;;;0.50;;
19778;SDS011;10049;59.306;18.090;2022-08-07T15:44:27;0.40;;;0.40;;
19778;SDS011;10049;59.306;18.090;2022-08-07T15:46:56;0.95;;;0.47;;
19778;SDS011;10049;59.306;18.090;2022-08-07T15:49:29;1.98;;;0.45;;